Time,TemperatureF,DewpointF,PressureIn,WindDirection,WindDirectionDegrees,WindSpeedMPH,WindSpeedGustMPH,Humidity,HourlyPrecipIn,Conditions,Clouds,dailyrainin,SoftwareType,DateUTC
2013-11-29 00:04:00,25.5,20.0,30.49,SSW,205,0.0,1.0,79,0.00,,,0.00,weatherlink.com 1.10,2013-11-29 05:04:00,
2013-11-29 00:19:00,25.7,20.0,30.49,SW,233,0.0,1.0,79,0.00,,,0.00,weatherlink.com 1.10,2013-11-29 05:19:00,
2013-11-29 00:49:00,26.1,20.0,30.49,SW,235,1.0,1.0,79,0.00,,,0.00,weatherlink.com 1.10,2013-11-29 05:49:00,
2013-11-29 01:04:00,26.5,21.0,30.50,West,259,0.0,1.0,78,0.00,,,0.00,weatherlink.com 1.10,2013-11-29 06:04:00,
2013-11-29 01:19:00,26.6,21.0,30.50,SW,233,0.0,1.0,78,0.00,,,0.00,weatherlink.com 1.10,2013-11-29 06:19:00,
2013-11-29 01:34:00,26.8,21.0,30.50,West,271,1.0,1.0,78,0.00,,,0.00,weatherlink.com 1.10,2013-11-29 06:34:00,
2013-11-29 01:49:00,27.0,21.0,30.50,West,270,3.0,3.0,78,0.00,,,0.00,weatherlink.com 1.10,2013-11-29 06:49:00,
2013-11-29 02:04:00,27.2,21.0,30.51,WNW,288,1.0,3.0,78,0.00,,,0.00,weatherlink.com 1.10,2013-11-29 07:04:00,
2013-11-29 02:19:00,27.3,22.0,30.52,West,279,1.0,3.0,79,0.00,,,0.00,weatherlink.com 1.10,2013-11-29 07:19:00,
2013-11-29 02:34:00,27.6,22.0,30.52,West,281,1.0,4.0,79,0.00,,,0.00,weatherlink.com 1.10,2013-11-29 07:34:00,
2013-11-29 02:49:00,27.5,22.0,30.53,WNW,285,1.0,3.0,79,0.00,,,0.00,weatherlink.com 1.10,2013-11-29 07:49:00,
2013-11-29 03:04:00,27.5,22.0,30.54,WNW,295,0.0,4.0,79,0.00,,,0.00,weatherlink.com 1.10,2013-11-29 08:04:00,
2013-11-29 03:19:00,27.7,22.0,30.54,WNW,289,4.0,4.0,79,0.00,,,0.00,weatherlink.com 1.10,2013-11-29 08:19:00,
2013-11-29 03:34:00,27.9,22.0,30.54,NW,307,3.0,9.0,77,0.00,,,0.00,weatherlink.com 1.10,2013-11-29 08:34:00,
2013-11-29 03:49:00,28.0,21.0,30.55,WNW,284,2.0,8.0,76,0.00,,,0.00,weatherlink.com 1.10,2013-11-29 08:49:00,
2013-11-29 04:04:00,27.9,21.0,30.55,NW,304,4.0,7.0,74,0.00,,,0.00,weatherlink.com 1.10,2013-11-29 09:04:00,
2013-11-29 04:19:00,27.7,20.0,30.55,WNW,289,2.0,3.0,74,0.00,,,0.00,weatherlink.com 1.10,2013-11-29 09:19:00,
2013-11-29 04:34:00,27.0,20.0,30.56,West,281,0.0,2.0,75,0.00,,,0.00,weatherlink.com 1.10,2013-11-29 09:34:00,
2013-11-29 04:49:00,26.2,20.0,30.56,West,281,0.0,1.0,76,0.00,,,0.00,weatherlink.com 1.10,2013-11-29 09:49:00,
2013-11-29 05:04:00,25.2,19.0,30.56,West,281,0.0,1.0,78,0.00,,,0.00,weatherlink.com 1.10,2013-11-29 10:04:00,
2013-11-29 05:19:00,25.2,20.0,30.57,West,281,1.0,1.0,79,0.00,,,0.00,weatherlink.com 1.10,2013-11-29 10:19:00,
2013-11-29 05:34:00,25.2,20.0,30.57,West,281,0.0,1.0,79,0.00,,,0.00,weatherlink.com 1.10,2013-11-29 10:34:00,
2013-11-29 05:49:00,24.8,20.0,30.58,West,281,0.0,0.0,81,0.00,,,0.00,weatherlink.com 1.10,2013-11-29 10:49:00,
2013-11-29 06:04:00,24.6,20.0,30.59,West,281,0.0,0.0,82,0.00,,,0.00,weatherlink.com 1.10,2013-11-29 11:04:00,
2013-11-29 06:19:00,24.6,20.0,30.59,West,281,1.0,1.0,81,0.00,,,0.00,weatherlink.com 1.10,2013-11-29 11:19:00,
2013-11-29 06:35:00,24.3,20.0,30.61,SSE,167,0.0,1.0,82,0.00,,,0.00,weatherlink.com 1.10,2013-11-29 11:35:00,
2013-11-29 06:50:00,23.7,19.0,30.61,SSE,166,0.0,0.0,83,0.00,,,0.00,weatherlink.com 1.10,2013-11-29 11:50:00,
2013-11-29 07:05:00,23.2,19.0,30.62,SSE,159,1.0,1.0,84,0.00,,,0.00,weatherlink.com 1.10,2013-11-29 12:05:00,
2013-11-29 07:20:00,23.2,19.0,30.63,SSE,160,0.0,1.0,83,0.00,,,0.00,weatherlink.com 1.10,2013-11-29 12:20:00,
2013-11-29 07:35:00,22.6,18.0,30.63,SSE,160,0.0,0.0,82,0.00,,,0.00,weatherlink.com 1.10,2013-11-29 12:35:00,
2013-11-29 07:50:00,21.7,17.0,30.64,SSW,204,0.0,1.0,83,0.00,,,0.00,weatherlink.com 1.10,2013-11-29 12:50:00,
2013-11-29 08:05:00,21.0,17.0,30.63,SSW,204,0.0,1.0,84,0.00,,,0.00,weatherlink.com 1.10,2013-11-29 13:05:00,
2013-11-29 08:20:00,20.9,17.0,30.64,SSW,204,0.0,0.0,84,0.00,,,0.00,weatherlink.com 1.10,2013-11-29 13:20:00,
2013-11-29 08:35:00,21.0,18.0,30.64,SSW,204,0.0,1.0,86,0.00,,,0.00,weatherlink.com 1.10,2013-11-29 13:35:00,
2013-11-29 08:50:00,21.7,18.0,30.65,SSW,204,0.0,0.0,86,0.00,,,0.00,weatherlink.com 1.10,2013-11-29 13:50:00,
2013-11-29 09:05:00,24.2,20.0,30.65,SSE,159,0.0,0.0,84,0.00,,,0.00,weatherlink.com 1.10,2013-11-29 14:05:00,
2013-11-29 09:20:00,26.5,21.0,30.65,WSW,256,0.0,1.0,80,0.00,,,0.00,weatherlink.com 1.10,2013-11-29 14:20:00,
2013-11-29 09:35:00,29.0,22.0,30.65,WSW,256,0.0,1.0,75,0.00,,,0.00,weatherlink.com 1.10,2013-11-29 14:35:00,
2013-11-29 09:50:00,30.0,21.0,30.65,WSW,258,1.0,2.0,70,0.00,,,0.00,weatherlink.com 1.10,2013-11-29 14:50:00,
2013-11-29 10:05:00,30.7,22.0,30.66,West,264,0.0,1.0,69,0.00,,,0.00,weatherlink.com 1.10,2013-11-29 15:05:00,
2013-11-29 10:20:00,31.9,21.0,30.66,WSW,248,0.0,1.0,65,0.00,,,0.00,weatherlink.com 1.10,2013-11-29 15:20:00,
2013-11-29 10:35:00,33.7,21.0,30.66,WSW,250,0.0,1.0,61,0.00,,,0.00,weatherlink.com 1.10,2013-11-29 15:35:00,
2013-11-29 10:50:00,36.0,22.0,30.66,SW,220,0.0,1.0,56,0.00,,,0.00,weatherlink.com 1.10,2013-11-29 15:50:00,
2013-11-29 11:05:00,35.4,21.0,30.66,SW,228,0.0,2.0,56,0.00,,,0.00,weatherlink.com 1.10,2013-11-29 16:05:00,
2013-11-29 11:20:00,35.9,21.0,30.66,ESE,123,2.0,3.0,55,0.00,,,0.00,weatherlink.com 1.10,2013-11-29 16:20:00,
2013-11-29 11:35:00,35.6,22.0,30.65,East,89,0.0,4.0,58,0.00,,,0.00,weatherlink.com 1.10,2013-11-29 16:35:00,
2013-11-29 11:51:00,36.2,22.0,30.66,East,86,1.0,3.0,56,0.00,,,0.00,weatherlink.com 1.10,2013-11-29 16:51:00,
2013-11-29 12:06:00,35.7,21.0,30.64,NE,46,0.0,4.0,56,0.00,,,0.00,weatherlink.com 1.10,2013-11-29 17:06:00,
2013-11-29 12:21:00,35.9,21.0,30.64,SE,127,3.0,3.0,56,0.00,,,0.00,weatherlink.com 1.10,2013-11-29 17:21:00,
2013-11-29 12:36:00,35.8,21.0,30.63,NE,50,1.0,7.0,56,0.00,,,0.00,weatherlink.com 1.10,2013-11-29 17:36:00,
2013-11-29 12:51:00,35.9,22.0,30.63,NE,44,1.0,6.0,58,0.00,,,0.00,weatherlink.com 1.10,2013-11-29 17:51:00,
2013-11-29 13:06:00,35.7,22.0,30.62,NNE,30,0.0,2.0,57,0.00,,,0.00,weatherlink.com 1.10,2013-11-29 18:06:00,
2013-11-29 13:21:00,36.5,22.0,30.62,SE,146,0.0,4.0,57,0.00,,,0.00,weatherlink.com 1.10,2013-11-29 18:21:00,
2013-11-29 13:36:00,36.4,22.0,30.62,SSE,159,5.0,6.0,57,0.00,,,0.00,weatherlink.com 1.10,2013-11-29 18:36:00,
2013-11-29 13:51:00,36.2,22.0,30.61,South,183,5.0,7.0,57,0.00,,,0.00,weatherlink.com 1.10,2013-11-29 18:51:00,
2013-11-29 14:06:00,36.3,22.0,30.61,SSE,152,4.0,7.0,57,0.00,,,0.00,weatherlink.com 1.10,2013-11-29 19:06:00,
2013-11-29 14:21:00,36.2,22.0,30.60,ESE,117,5.0,6.0,57,0.00,,,0.00,weatherlink.com 1.10,2013-11-29 19:21:00,
2013-11-29 14:36:00,36.4,21.0,30.60,East,99,2.0,6.0,55,0.00,,,0.00,weatherlink.com 1.10,2013-11-29 19:36:00,
2013-11-29 14:51:00,36.4,22.0,30.60,SE,141,3.0,5.0,57,0.00,,,0.00,weatherlink.com 1.10,2013-11-29 19:51:00,
2013-11-29 15:06:00,36.2,22.0,30.60,East,100,1.0,8.0,57,0.00,,,0.00,weatherlink.com 1.10,2013-11-29 20:06:00,
2013-11-29 15:21:00,36.1,22.0,30.59,ENE,73,1.0,6.0,56,0.00,,,0.00,weatherlink.com 1.10,2013-11-29 20:21:00,
2013-11-29 15:36:00,36.0,22.0,30.59,SE,130,3.0,5.0,58,0.00,,,0.00,weatherlink.com 1.10,2013-11-29 20:36:00,
2013-11-29 15:51:00,35.9,22.0,30.60,SE,144,5.0,5.0,58,0.00,,,0.00,weatherlink.com 1.10,2013-11-29 20:51:00,
2013-11-29 16:06:00,35.5,22.0,30.60,SE,136,4.0,6.0,59,0.00,,,0.00,weatherlink.com 1.10,2013-11-29 21:06:00,
2013-11-29 16:21:00,35.5,22.0,30.60,SE,132,3.0,4.0,59,0.00,,,0.00,weatherlink.com 1.10,2013-11-29 21:21:00,
2013-11-29 16:36:00,35.3,23.0,30.60,East,101,3.0,5.0,60,0.00,,,0.00,weatherlink.com 1.10,2013-11-29 21:36:00,
2013-11-29 16:51:00,34.7,22.0,30.59,SE,135,0.0,4.0,61,0.00,,,0.00,weatherlink.com 1.10,2013-11-29 21:51:00,
2013-11-29 17:06:00,33.5,22.0,30.60,East,79,0.0,3.0,62,0.00,,,0.00,weatherlink.com 1.10,2013-11-29 22:06:00,
2013-11-29 17:21:00,32.1,21.0,30.60,ENE,74,0.0,3.0,65,0.00,,,0.00,weatherlink.com 1.10,2013-11-29 22:21:00,
2013-11-29 17:36:00,30.8,21.0,30.60,ENE,74,0.0,1.0,67,0.00,,,0.00,weatherlink.com 1.10,2013-11-29 22:36:00,
2013-11-29 17:51:00,29.7,21.0,30.60,ENE,72,0.0,1.0,70,0.00,,,0.00,weatherlink.com 1.10,2013-11-29 22:51:00,
2013-11-29 18:06:00,28.9,21.0,30.59,ENE,72,0.0,0.0,72,0.00,,,0.00,weatherlink.com 1.10,2013-11-29 23:06:00,
2013-11-29 18:21:00,28.7,21.0,30.59,ENE,72,0.0,0.0,73,0.00,,,0.00,weatherlink.com 1.10,2013-11-29 23:21:00,
2013-11-29 18:36:00,28.5,21.0,30.59,ENE,72,0.0,1.0,73,0.00,,,0.00,weatherlink.com 1.10,2013-11-29 23:36:00,
2013-11-29 18:51:00,28.2,21.0,30.59,ENE,72,0.0,1.0,74,0.00,,,0.00,weatherlink.com 1.10,2013-11-29 23:51:00,
2013-11-29 19:06:00,28.2,21.0,30.58,ESE,120,0.0,1.0,75,0.00,,,0.00,weatherlink.com 1.10,2013-11-30 00:06:00,
2013-11-29 19:21:00,27.4,20.0,30.59,NE,51,0.0,1.0,75,0.00,,,0.00,weatherlink.com 1.10,2013-11-30 00:21:00,
2013-11-29 19:36:00,26.8,21.0,30.58,NE,51,0.0,0.0,77,0.00,,,0.00,weatherlink.com 1.10,2013-11-30 00:36:00,
2013-11-29 19:51:00,26.9,21.0,30.57,NE,51,0.0,1.0,77,0.00,,,0.00,weatherlink.com 1.10,2013-11-30 00:51:00,
2013-11-29 20:06:00,26.7,21.0,30.57,NE,51,0.0,1.0,78,0.00,,,0.00,weatherlink.com 1.10,2013-11-30 01:06:00,
2013-11-29 20:21:00,26.1,20.0,30.56,NE,51,0.0,1.0,79,0.00,,,0.00,weatherlink.com 1.10,2013-11-30 01:21:00,
2013-11-29 20:36:00,26.4,21.0,30.57,ESE,120,0.0,1.0,80,0.00,,,0.00,weatherlink.com 1.10,2013-11-30 01:36:00,
2013-11-29 20:51:00,26.7,21.0,30.56,ENE,76,0.0,1.0,80,0.00,,,0.00,weatherlink.com 1.10,2013-11-30 01:51:00,
2013-11-29 21:06:00,27.0,21.0,30.55,East,99,0.0,1.0,79,0.00,,,0.00,weatherlink.com 1.10,2013-11-30 02:06:00,
2013-11-29 21:21:00,26.9,22.0,30.55,SE,135,0.0,3.0,80,0.00,,,0.00,weatherlink.com 1.10,2013-11-30 02:21:00,
2013-11-29 21:36:00,27.4,22.0,30.55,East,94,0.0,4.0,79,0.00,,,0.00,weatherlink.com 1.10,2013-11-30 02:36:00,
2013-11-29 21:51:00,27.7,22.0,30.55,ENE,61,3.0,6.0,79,0.00,,,0.00,weatherlink.com 1.10,2013-11-30 02:51:00,
2013-11-29 22:06:00,28.3,22.0,30.55,ESE,122,4.0,4.0,78,0.00,,,0.00,weatherlink.com 1.10,2013-11-30 03:06:00,
2013-11-29 22:21:00,29.0,22.0,30.55,SSE,147,3.0,7.0,76,0.00,,,0.00,weatherlink.com 1.10,2013-11-30 03:21:00,
2013-11-29 22:36:00,29.0,22.0,30.55,SE,132,0.0,6.0,76,0.00,,,0.00,weatherlink.com 1.10,2013-11-30 03:36:00,
2013-11-29 22:51:00,29.3,22.0,30.54,South,169,0.0,7.0,75,0.00,,,0.00,weatherlink.com 1.10,2013-11-30 03:51:00,
2013-11-29 23:06:00,29.4,22.0,30.54,ESE,108,3.0,7.0,75,0.00,,,0.00,weatherlink.com 1.10,2013-11-30 04:06:00,
2013-11-29 23:21:00,29.2,22.0,30.53,SSE,148,1.0,6.0,75,0.00,,,0.00,weatherlink.com 1.10,2013-11-30 04:21:00,
2013-11-29 23:36:00,29.1,22.0,30.53,ESE,108,3.0,8.0,74,0.00,,,0.00,weatherlink.com 1.10,2013-11-30 04:36:00,
2013-11-29 23:51:00,29.1,22.0,30.52,SE,135,0.0,8.0,75,0.00,,,0.00,weatherlink.com 1.10,2013-11-30 04:51:00,